createdAt,value
2023-02-09T00:01:30.945Z,-4.60
2023-02-09T00:03:59.134Z,-4.54
2023-02-09T00:06:27.200Z,-4.58
2023-02-09T00:08:54.294Z,-4.63
2023-02-09T00:11:43.158Z,-4.68
2023-02-09T00:14:13.984Z,-4.71
2023-02-09T00:16:44.760Z,-4.72
2023-02-09T00:19:12.824Z,-4.68
2023-02-09T00:21:40.483Z,-4.71
2023-02-09T00:24:10.729Z,-4.72
2023-02-09T00:26:38.098Z,-4.71
2023-02-09T00:29:05.837Z,-4.84
2023-02-09T00:31:33.475Z,-4.74
2023-02-09T00:34:01.000Z,-4.76
2023-02-09T00:36:28.238Z,-4.78
2023-02-09T00:38:55.284Z,-4.69
2023-02-09T00:41:42.272Z,-4.74
2023-02-09T00:44:11.070Z,-4.71
2023-02-09T00:46:38.102Z,-4.69
2023-02-09T00:49:05.592Z,-4.70
2023-02-09T00:51:32.860Z,-4.84
2023-02-09T00:53:59.826Z,-4.94
2023-02-09T00:56:26.773Z,-5.26
2023-02-09T00:58:53.898Z,-5.22
2023-02-09T01:01:20.868Z,-5.19
2023-02-09T01:03:47.933Z,-5.16
2023-02-09T01:06:15.057Z,-5.09
2023-02-09T01:08:42.040Z,-5.09
2023-02-09T01:11:14.666Z,-5.12
2023-02-09T01:13:43.268Z,-5.23
2023-02-09T01:16:13.882Z,-5.23
2023-02-09T01:18:42.279Z,-5.25
2023-02-09T01:21:14.854Z,-5.22
2023-02-09T01:23:42.374Z,-5.30
2023-02-09T01:26:12.132Z,-5.48
2023-02-09T01:28:39.917Z,-5.42
2023-02-09T01:31:17.559Z,-5.36
2023-02-09T01:33:44.592Z,-5.38
2023-02-09T01:36:11.504Z,-5.29
2023-02-09T01:38:38.450Z,-5.22
2023-02-09T01:41:05.641Z,-6.37
2023-02-09T01:43:55.848Z,-5.42
2023-02-09T01:46:25.480Z,-5.47
2023-02-09T01:48:59.175Z,-5.46
2023-02-09T01:51:27.273Z,-5.52
2023-02-09T01:53:54.522Z,-5.50
2023-02-09T01:56:28.485Z,-5.61
2023-02-09T01:58:56.018Z,-5.79
2023-02-09T02:01:23.777Z,-5.56
2023-02-09T02:03:51.909Z,-5.60
2023-02-09T02:06:19.786Z,-5.78
2023-02-09T02:08:53.658Z,-5.64
2023-02-09T02:11:22.331Z,-5.70
2023-02-09T02:13:49.921Z,-5.76
2023-02-09T02:16:42.169Z,-5.73
2023-02-09T02:19:21.094Z,-5.78
2023-02-09T02:22:16.193Z,-5.77
2023-02-09T02:24:52.029Z,-5.82
2023-02-09T02:27:33.975Z,-5.87
2023-02-09T02:30:17.734Z,-5.84
2023-02-09T02:32:51.123Z,-5.96
2023-02-09T02:35:17.985Z,-5.96
2023-02-09T02:37:48.081Z,-5.99
2023-02-09T02:40:30.413Z,-6.05
2023-02-09T02:43:22.183Z,-5.98
2023-02-09T02:46:11.152Z,-5.97
2023-02-09T02:48:44.244Z,-6.09
2023-02-09T02:51:28.518Z,-6.11
2023-02-09T02:54:01.994Z,-6.09
2023-02-09T02:56:40.023Z,-6.02
2023-02-09T02:59:12.719Z,-6.18
2023-02-09T03:02:11.726Z,-6.15
2023-02-09T03:04:40.707Z,-6.16
2023-02-09T03:07:08.504Z,-6.24
2023-02-09T03:09:35.648Z,-6.23
2023-02-09T03:12:16.476Z,-6.29
2023-02-09T03:14:59.493Z,-6.29
2023-02-09T03:17:59.024Z,-6.26
2023-02-09T03:20:28.205Z,-6.28
2023-02-09T03:23:00.086Z,-6.28
2023-02-09T03:25:32.020Z,-6.26
2023-02-09T03:28:14.688Z,-6.37
2023-02-09T03:30:44.961Z,-6.28
2023-02-09T03:33:21.115Z,-6.29
2023-02-09T03:35:54.925Z,-6.32
2023-02-09T03:38:21.870Z,-6.31
2023-02-09T03:40:48.813Z,-6.35
2023-02-09T03:43:16.004Z,-6.34
2023-02-09T03:45:42.912Z,-6.43
2023-02-09T03:48:09.909Z,-6.45
2023-02-09T03:50:37.971Z,-6.50
2023-02-09T03:53:08.190Z,-6.40
2023-02-09T03:55:35.870Z,-6.43
2023-02-09T03:58:02.874Z,-6.52
2023-02-09T04:00:31.602Z,-6.63
2023-02-09T04:02:59.854Z,-6.66
2023-02-09T04:05:26.869Z,-6.64
2023-02-09T04:07:53.856Z,-6.71
2023-02-09T04:10:22.963Z,-6.74
2023-02-09T04:12:53.162Z,-6.74
2023-02-09T04:15:20.128Z,-6.63
2023-02-09T04:17:47.909Z,-6.74
2023-02-09T04:20:17.630Z,-6.75
2023-02-09T04:22:45.780Z,-6.75
2023-02-09T04:25:12.671Z,-6.77
2023-02-09T04:27:39.708Z,-6.70
2023-02-09T04:30:11.059Z,-6.75
2023-02-09T04:32:39.131Z,-6.81
2023-02-09T04:35:06.547Z,-6.87
2023-02-09T04:37:33.452Z,-6.85
2023-02-09T04:40:00.875Z,-6.90
2023-02-09T04:42:27.857Z,-6.87
2023-02-09T04:44:54.743Z,-6.88
2023-02-09T04:47:21.594Z,-6.92
2023-02-09T04:49:48.622Z,-6.90
2023-02-09T04:52:16.420Z,-7.01
2023-02-09T04:54:43.285Z,-7.08
2023-02-09T04:57:28.702Z,-7.21
2023-02-09T04:59:55.757Z,-7.22
2023-02-09T05:02:22.741Z,-7.25
2023-02-09T05:04:49.889Z,-7.11
2023-02-09T05:07:16.745Z,-7.25
2023-02-09T05:09:44.640Z,-7.33
2023-02-09T05:12:11.935Z,-7.15
2023-02-09T05:14:38.996Z,-7.12
2023-02-09T05:17:05.876Z,-7.16
2023-02-09T05:19:32.860Z,-7.45
2023-02-09T05:21:59.830Z,-7.34
2023-02-09T05:24:26.788Z,-7.32
2023-02-09T05:26:53.669Z,-7.31
2023-02-09T05:29:22.224Z,-7.36
2023-02-09T05:31:49.261Z,-7.44
2023-02-09T05:34:16.263Z,-7.36
2023-02-09T05:36:43.299Z,-7.36
2023-02-09T05:39:10.260Z,-7.50
2023-02-09T05:41:55.928Z,-7.43
2023-02-09T05:44:22.997Z,-7.67
2023-02-09T05:46:49.950Z,-7.72
2023-02-09T05:49:16.870Z,-7.95
2023-02-09T05:51:43.796Z,-7.90
2023-02-09T05:54:10.843Z,-7.92
2023-02-09T05:56:38.167Z,-7.75
2023-02-09T05:59:05.253Z,-7.75
2023-02-09T06:01:32.675Z,-7.73
2023-02-09T06:03:59.522Z,-7.90
2023-02-09T06:06:26.356Z,-7.52
2023-02-09T06:08:53.298Z,-7.55
2023-02-09T06:11:20.676Z,-7.45
2023-02-09T06:13:47.653Z,-7.41
2023-02-09T06:16:14.529Z,-7.42
2023-02-09T06:18:41.446Z,-7.40
2023-02-09T06:21:08.491Z,-7.43
2023-02-09T06:23:35.516Z,-7.40
2023-02-09T06:26:06.810Z,-7.39
2023-02-09T06:28:33.839Z,-7.43
2023-02-09T06:31:01.203Z,-7.37
2023-02-09T06:33:28.544Z,-7.29
2023-02-09T06:35:55.489Z,-7.23
2023-02-09T06:38:22.504Z,-7.23
2023-02-09T06:40:50.084Z,-7.08
2023-02-09T06:43:17.669Z,-7.01
2023-02-09T06:45:44.631Z,-6.96
2023-02-09T06:48:11.517Z,-6.88
2023-02-09T06:50:39.168Z,-7.08
2023-02-09T06:53:06.923Z,-7.02
2023-02-09T06:55:34.491Z,-6.59
2023-02-09T06:58:02.357Z,-6.42
2023-02-09T07:00:31.722Z,-6.45
2023-02-09T07:02:59.626Z,-6.14
2023-02-09T07:05:27.044Z,-6.05
2023-02-09T07:07:56.476Z,-5.91
2023-02-09T07:10:23.529Z,-5.73
2023-02-09T07:12:50.672Z,-5.63
2023-02-09T07:15:17.837Z,-5.41
2023-02-09T07:17:45.079Z,-5.31
2023-02-09T07:20:12.517Z,-5.05
2023-02-09T07:22:40.997Z,-5.02
2023-02-09T07:25:08.305Z,-4.83
2023-02-09T07:27:35.387Z,-4.73
2023-02-09T07:30:02.746Z,-4.53
2023-02-09T07:32:34.088Z,-4.33
2023-02-09T07:35:01.167Z,-4.33
2023-02-09T07:37:28.081Z,-3.93
2023-02-09T07:39:56.649Z,-4.03
2023-02-09T07:42:24.869Z,-3.51
2023-02-09T07:44:51.775Z,-3.28
2023-02-09T07:47:18.749Z,-3.05
2023-02-09T07:49:46.004Z,-2.93
2023-02-09T07:52:12.900Z,-2.73
2023-02-09T07:54:39.799Z,-2.52
2023-02-09T07:57:06.682Z,-2.23
2023-02-09T07:59:34.197Z,-2.14
2023-02-09T08:02:01.293Z,-1.99
2023-02-09T08:04:28.161Z,-1.69
2023-02-09T08:06:55.286Z,-1.19
2023-02-09T08:09:22.305Z,-1.02
2023-02-09T08:12:08.277Z,-0.57
2023-02-09T08:14:42.960Z,-0.15
2023-02-09T08:17:20.456Z,-0.26
2023-02-09T08:19:56.569Z,0.17
2023-02-09T08:22:25.090Z,0.68
2023-02-09T08:24:52.631Z,0.92
2023-02-09T08:27:19.700Z,0.87
2023-02-09T08:30:07.239Z,1.37
2023-02-09T08:32:54.082Z,1.40
2023-02-09T08:35:21.062Z,1.62
2023-02-09T08:37:48.092Z,1.37
2023-02-09T08:40:15.245Z,2.06
2023-02-09T08:42:42.150Z,2.41
2023-02-09T08:45:09.876Z,2.12
2023-02-09T08:47:36.840Z,2.20
2023-02-09T08:50:03.900Z,2.75
2023-02-09T08:52:31.286Z,3.27
2023-02-09T08:54:58.141Z,3.53
2023-02-09T08:57:38.193Z,3.43
2023-02-09T09:00:10.570Z,3.75
2023-02-09T09:02:37.562Z,3.88
2023-02-09T09:05:04.695Z,3.83
2023-02-09T09:07:31.598Z,3.78
2023-02-09T09:09:58.718Z,4.16
2023-02-09T09:12:25.697Z,4.02
2023-02-09T09:14:52.657Z,4.25
2023-02-09T09:17:19.585Z,4.48
2023-02-09T09:19:46.637Z,4.63
2023-02-09T09:22:13.532Z,4.85
2023-02-09T09:24:43.216Z,4.76
2023-02-09T09:27:10.816Z,4.55
2023-02-09T09:29:40.092Z,4.59
2023-02-09T09:32:08.222Z,4.38
2023-02-09T09:34:35.142Z,4.27
2023-02-09T09:37:01.982Z,3.52
2023-02-09T09:39:28.904Z,4.41
2023-02-09T09:41:59.816Z,4.34
2023-02-09T09:44:34.884Z,4.51
2023-02-09T09:47:08.762Z,4.54
2023-02-09T09:49:37.291Z,4.08
2023-02-09T09:52:15.769Z,3.77
2023-02-09T09:54:44.071Z,4.20
2023-02-09T09:57:24.472Z,4.34
2023-02-09T09:59:53.053Z,4.25
2023-02-09T10:02:30.267Z,4.44
2023-02-09T10:05:10.436Z,4.93
2023-02-09T10:07:38.859Z,5.55
2023-02-09T10:10:21.279Z,5.75
2023-02-09T10:12:51.152Z,5.61
2023-02-09T10:15:19.319Z,5.99
2023-02-09T10:17:46.167Z,6.03
2023-02-09T10:20:13.539Z,6.94
2023-02-09T10:22:44.836Z,6.70
2023-02-09T10:25:39.105Z,6.97
2023-02-09T10:28:06.630Z,6.98
2023-02-09T10:30:34.136Z,7.65
2023-02-09T10:33:02.423Z,6.50
2023-02-09T10:35:36.522Z,6.59
2023-02-09T10:38:04.179Z,7.57
2023-02-09T10:40:33.799Z,8.21
2023-02-09T10:43:10.323Z,9.00
2023-02-09T10:45:44.620Z,8.72
2023-02-09T10:48:11.660Z,8.68
2023-02-09T10:50:50.812Z,9.45
2023-02-09T10:53:33.036Z,9.58
2023-02-09T10:56:40.493Z,9.09
2023-02-09T10:59:25.339Z,8.63
2023-02-09T11:02:02.275Z,7.86
2023-02-09T11:04:39.998Z,8.50
2023-02-09T11:07:13.513Z,9.57
2023-02-09T11:09:48.504Z,10.40
2023-02-09T11:12:15.476Z,10.28
2023-02-09T11:14:43.250Z,9.68
2023-02-09T11:17:36.546Z,9.82
2023-02-09T11:20:12.133Z,9.83
2023-02-09T11:23:23.295Z,10.71
2023-02-09T11:25:53.084Z,10.72
2023-02-09T11:28:55.148Z,11.08
2023-02-09T11:32:03.966Z,10.72
2023-02-09T11:34:37.959Z,10.47
2023-02-09T11:37:16.455Z,11.41
2023-02-09T11:39:51.401Z,12.37
2023-02-09T11:42:45.145Z,11.32
2023-02-09T11:45:30.896Z,11.75
2023-02-09T11:47:58.356Z,11.71
2023-02-09T11:50:39.250Z,11.28
2023-02-09T11:53:16.190Z,9.52
2023-02-09T11:55:49.768Z,10.32
2023-02-09T11:58:47.630Z,8.88
2023-02-09T12:01:44.601Z,10.62
2023-02-09T12:04:26.444Z,9.86
2023-02-09T12:07:00.458Z,9.65
2023-02-09T12:09:55.751Z,9.65
2023-02-09T12:12:29.194Z,10.27
2023-02-09T12:15:05.629Z,8.76
2023-02-09T12:17:38.124Z,9.24
2023-02-09T12:20:19.997Z,8.88
2023-02-09T12:22:57.894Z,9.39
2023-02-09T12:26:00.138Z,8.76
2023-02-09T12:28:27.298Z,9.34
2023-02-09T12:30:58.988Z,9.26
2023-02-09T12:33:25.827Z,9.72
2023-02-09T12:36:08.472Z,9.04
2023-02-09T12:38:56.844Z,9.55
2023-02-09T12:41:30.209Z,10.31
2023-02-09T12:44:06.034Z,8.58
2023-02-09T12:46:34.095Z,9.48
2023-02-09T12:49:00.965Z,9.35
2023-02-09T12:51:39.737Z,8.66
2023-02-09T12:54:31.020Z,9.30
2023-02-09T12:57:16.322Z,10.62
2023-02-09T12:59:52.727Z,10.97
2023-02-09T13:02:37.648Z,11.32
2023-02-09T13:05:23.403Z,9.72
2023-02-09T13:08:15.972Z,8.91
2023-02-09T13:11:06.907Z,8.76
2023-02-09T13:13:53.727Z,8.48
2023-02-09T13:16:30.983Z,9.56
2023-02-09T13:19:39.189Z,9.01
2023-02-09T13:22:29.105Z,9.00
2023-02-09T13:25:00.849Z,10.40
2023-02-09T13:27:29.723Z,10.72
2023-02-09T13:29:58.681Z,10.40
2023-02-09T13:32:47.875Z,10.98
2023-02-09T13:35:29.387Z,9.69
2023-02-09T13:37:58.947Z,10.79
2023-02-09T13:40:31.530Z,10.62
2023-02-09T13:43:17.312Z,10.99
2023-02-09T13:46:02.876Z,9.61
2023-02-09T13:48:39.424Z,9.21
2023-02-09T13:51:20.624Z,9.47
2023-02-09T13:54:02.424Z,9.98
2023-02-09T13:56:31.962Z,9.66
2023-02-09T13:59:00.448Z,9.51
2023-02-09T14:01:33.811Z,9.87
2023-02-09T14:04:15.255Z,10.69
2023-02-09T14:07:05.678Z,11.26
2023-02-09T14:09:44.668Z,10.25
2023-02-09T14:12:55.551Z,9.75
2023-02-09T14:15:53.095Z,9.80
2023-02-09T14:18:44.261Z,9.56
2023-02-09T14:21:11.433Z,9.80
2023-02-09T14:23:39.636Z,9.10
2023-02-09T14:26:27.597Z,9.79
2023-02-09T14:29:04.309Z,10.25
2023-02-09T14:31:34.626Z,8.96
2023-02-09T14:34:02.261Z,9.86
2023-02-09T14:36:36.246Z,10.16
2023-02-09T14:39:13.122Z,10.34
2023-02-09T14:41:40.217Z,9.97
2023-02-09T14:44:07.010Z,8.84
2023-02-09T14:46:48.551Z,7.78
2023-02-09T14:49:16.325Z,7.20
2023-02-09T14:51:44.945Z,8.13
2023-02-09T14:54:28.122Z,7.98
2023-02-09T14:56:58.705Z,7.44
2023-02-09T14:59:27.576Z,7.13
2023-02-09T15:01:54.977Z,6.76
2023-02-09T15:04:22.555Z,6.96
2023-02-09T15:07:03.796Z,6.92
2023-02-09T15:09:36.936Z,7.13
2023-02-09T15:12:06.269Z,6.22
2023-02-09T15:14:38.098Z,6.15
2023-02-09T15:17:17.669Z,6.19
2023-02-09T15:19:45.842Z,6.17
2023-02-09T15:22:15.189Z,6.13
2023-02-09T15:24:44.163Z,5.46
2023-02-09T15:27:24.278Z,5.49
2023-02-09T15:29:51.497Z,5.17
2023-02-09T15:32:20.552Z,5.04
2023-02-09T15:34:47.993Z,4.84
2023-02-09T15:37:37.053Z,4.56
2023-02-09T15:40:16.116Z,4.49
2023-02-09T15:43:02.014Z,4.41
2023-02-09T15:45:48.860Z,4.31
2023-02-09T15:48:16.159Z,4.00
2023-02-09T15:50:45.994Z,3.93
2023-02-09T15:53:18.583Z,3.97
2023-02-09T15:55:46.893Z,3.82
2023-02-09T15:58:22.384Z,3.78
2023-02-09T16:00:49.431Z,3.64
2023-02-09T16:03:19.577Z,3.64
2023-02-09T16:05:53.464Z,3.48
2023-02-09T16:08:26.719Z,3.24
2023-02-09T16:10:54.617Z,3.12
2023-02-09T16:13:22.064Z,3.01
2023-02-09T16:15:49.598Z,2.96
2023-02-09T16:18:16.699Z,2.96
2023-02-09T16:20:47.459Z,2.91
2023-02-09T16:23:21.108Z,2.85
2023-02-09T16:25:54.226Z,2.87
2023-02-09T16:28:22.224Z,2.80
2023-02-09T16:30:54.012Z,2.60
2023-02-09T16:33:25.800Z,2.64
2023-02-09T16:36:02.931Z,2.49
2023-02-09T16:38:31.534Z,2.44
2023-02-09T16:40:58.581Z,2.32
2023-02-09T16:43:27.085Z,2.16
2023-02-09T16:46:03.425Z,2.08
2023-02-09T16:48:34.784Z,1.87
2023-02-09T16:51:03.008Z,1.88
2023-02-09T16:53:38.635Z,1.82
2023-02-09T16:56:10.373Z,1.84
2023-02-09T16:58:38.662Z,1.78
2023-02-09T17:01:23.019Z,1.57
2023-02-09T17:03:57.940Z,1.50
2023-02-09T17:06:28.885Z,1.43
2023-02-09T17:08:56.949Z,1.26
2023-02-09T17:11:27.196Z,1.19
2023-02-09T17:13:57.832Z,0.84
2023-02-09T17:16:37.046Z,0.89
2023-02-09T17:19:11.522Z,0.89
2023-02-09T17:21:40.611Z,0.91
2023-02-09T17:24:26.689Z,0.84
2023-02-09T17:26:54.557Z,0.78
2023-02-09T17:29:24.024Z,0.68
2023-02-09T17:31:54.044Z,0.67
2023-02-09T17:34:27.477Z,0.63
2023-02-09T17:36:56.574Z,0.46
2023-02-09T17:39:25.655Z,0.43
2023-02-09T17:41:53.449Z,0.32
2023-02-09T17:44:44.942Z,0.33
2023-02-09T17:47:17.168Z,0.26
2023-02-09T17:49:47.148Z,0.08
2023-02-09T17:52:19.757Z,0.07
2023-02-09T17:54:49.028Z,0.12
2023-02-09T17:57:18.292Z,0.00
2023-02-09T17:59:48.760Z,-0.04
2023-02-09T18:02:20.101Z,-0.06
2023-02-09T18:04:48.220Z,-0.13
2023-02-09T18:07:20.737Z,-0.18
2023-02-09T18:09:49.584Z,-0.24
2023-02-09T18:12:22.099Z,-0.43
2023-02-09T18:14:50.354Z,-0.45
2023-02-09T18:17:20.938Z,-0.49
2023-02-09T18:19:50.091Z,-0.51
2023-02-09T18:22:20.371Z,-0.60
2023-02-09T18:24:48.566Z,-0.62
2023-02-09T18:27:20.814Z,-0.62
2023-02-09T18:29:49.274Z,-0.66
2023-02-09T18:32:18.458Z,-0.81
2023-02-09T18:34:47.196Z,-0.89
2023-02-09T18:37:16.553Z,-1.12
2023-02-09T18:39:47.008Z,-1.06
2023-02-09T18:42:16.811Z,-0.99
2023-02-09T18:44:47.341Z,-1.03
2023-02-09T18:47:16.896Z,-2.15
2023-02-09T18:49:45.909Z,-1.08
2023-02-09T18:52:19.377Z,-1.09
2023-02-09T18:54:48.789Z,-1.12
2023-02-09T18:57:19.661Z,-1.23
2023-02-09T18:59:48.005Z,-1.40
2023-02-09T19:02:16.526Z,-1.42
2023-02-09T19:04:45.172Z,-1.44
2023-02-09T19:07:15.177Z,-1.46
2023-02-09T19:09:46.930Z,-1.43
2023-02-09T19:12:15.369Z,-1.46
2023-02-09T19:14:48.066Z,-1.55
2023-02-09T19:17:18.644Z,-1.61
2023-02-09T19:19:47.764Z,-1.66
2023-02-09T19:22:21.629Z,-1.74
2023-02-09T19:24:53.256Z,-1.73
2023-02-09T19:27:24.462Z,-1.80
2023-02-09T19:29:57.783Z,-1.90
2023-02-09T19:32:27.825Z,-2.01
2023-02-09T19:34:57.355Z,-1.92
2023-02-09T19:37:25.979Z,-1.99
2023-02-09T19:40:11.662Z,-2.12
2023-02-09T19:42:39.580Z,-2.05
2023-02-09T19:45:11.026Z,-2.03
2023-02-09T19:47:39.409Z,-2.12
2023-02-09T19:50:08.156Z,-2.25
2023-02-09T19:52:38.883Z,-2.71
2023-02-09T19:55:07.232Z,-2.56
2023-02-09T19:57:36.224Z,-2.68
2023-02-09T20:00:07.195Z,-2.58
2023-02-09T20:02:35.949Z,-2.66
2023-02-09T20:05:06.704Z,-2.68
2023-02-09T20:07:34.608Z,-2.77
2023-02-09T20:10:05.352Z,-2.93
2023-02-09T20:12:34.794Z,-2.90
2023-02-09T20:15:03.441Z,-2.95
2023-02-09T20:17:31.811Z,-2.90
2023-02-09T20:20:08.909Z,-2.96
2023-02-09T20:22:38.525Z,-3.05
2023-02-09T20:25:07.341Z,-3.03
2023-02-09T20:27:35.311Z,-3.04
2023-02-09T20:30:05.507Z,-3.00
2023-02-09T20:32:38.300Z,-2.99
2023-02-09T20:35:07.332Z,-3.10
2023-02-09T20:37:35.665Z,-3.12
2023-02-09T20:40:06.091Z,-3.13
2023-02-09T20:42:53.119Z,-3.22
2023-02-09T20:45:39.850Z,-3.35
2023-02-09T20:48:08.673Z,-3.41
2023-02-09T20:50:37.095Z,-3.44
2023-02-09T20:53:05.561Z,-3.53
2023-02-09T20:55:37.827Z,-3.61
2023-02-09T20:58:06.884Z,-3.66
2023-02-09T21:00:35.335Z,-3.59
2023-02-09T21:03:04.341Z,-3.59
2023-02-09T21:05:33.135Z,-3.58
2023-02-09T21:08:04.876Z,-3.48
2023-02-09T21:10:35.849Z,-3.59
2023-02-09T21:13:07.927Z,-5.01
2023-02-09T21:15:41.217Z,-3.85
2023-02-09T21:18:09.358Z,-3.98
2023-02-09T21:20:40.446Z,-3.96
2023-02-09T21:23:08.072Z,-3.80
2023-02-09T21:25:39.636Z,-3.87
2023-02-09T21:28:07.528Z,-4.09
2023-02-09T21:30:34.831Z,-3.96
2023-02-09T21:33:02.354Z,-4.15
2023-02-09T21:35:29.938Z,-4.08
2023-02-09T21:37:57.251Z,-4.09
2023-02-09T21:40:24.944Z,-4.02
2023-02-09T21:42:52.537Z,-4.07
2023-02-09T21:45:20.094Z,-4.08
2023-02-09T21:47:47.452Z,-4.16
2023-02-09T21:50:14.980Z,-4.22
2023-02-09T21:52:42.332Z,-4.38
2023-02-09T21:55:09.759Z,-4.22
2023-02-09T21:57:38.368Z,-4.27
2023-02-09T22:00:09.054Z,-4.33
2023-02-09T22:02:36.390Z,-4.39
2023-02-09T22:05:07.700Z,-4.42
2023-02-09T22:07:36.067Z,-4.56
2023-02-09T22:10:05.190Z,-4.64
2023-02-09T22:12:34.286Z,-4.79
2023-02-09T22:15:01.460Z,-4.54
2023-02-09T22:17:28.481Z,-4.63
2023-02-09T22:19:57.892Z,-4.57
2023-02-09T22:22:24.691Z,-4.62
2023-02-09T22:24:53.082Z,-4.57
2023-02-09T22:27:22.674Z,-4.73
2023-02-09T22:29:49.750Z,-4.78
2023-02-09T22:32:16.959Z,-4.82
2023-02-09T22:34:43.828Z,-4.82
2023-02-09T22:37:10.687Z,-4.85
2023-02-09T22:39:37.805Z,-4.89
2023-02-09T22:42:05.148Z,-4.84
2023-02-09T22:44:33.482Z,-4.87
2023-02-09T22:47:00.378Z,-4.86
2023-02-09T22:49:27.353Z,-4.83
2023-02-09T22:51:55.003Z,-4.94
2023-02-09T22:54:22.153Z,-5.00
2023-02-09T22:56:49.066Z,-5.00
2023-02-09T22:59:16.155Z,-5.07
2023-02-09T23:01:43.622Z,-5.09
2023-02-09T23:04:10.738Z,-5.13
2023-02-09T23:06:37.678Z,-5.09
2023-02-09T23:09:07.509Z,-5.20
2023-02-09T23:11:35.171Z,-5.25
2023-02-09T23:14:10.987Z,-5.32
2023-02-09T23:16:40.150Z,-5.27
2023-02-09T23:19:08.810Z,-5.22
2023-02-09T23:21:39.209Z,-5.29
2023-02-09T23:24:06.978Z,-5.44
2023-02-09T23:26:34.511Z,-5.49
2023-02-09T23:29:04.965Z,-5.44
2023-02-09T23:31:32.390Z,-5.50
2023-02-09T23:34:00.005Z,-5.50
2023-02-09T23:36:29.819Z,-5.53
2023-02-09T23:38:59.464Z,-5.52
2023-02-09T23:41:27.390Z,-5.53
2023-02-09T23:43:54.590Z,-5.52
2023-02-09T23:46:25.741Z,-5.60
2023-02-09T23:48:54.960Z,-5.75
2023-02-09T23:51:33.725Z,-5.64
2023-02-09T23:54:03.431Z,-5.67
2023-02-09T23:56:36.771Z,-5.58
2023-02-09T23:59:06.261Z,-5.66
